Wednesday, January 17, 2018, 8:22 AM EST
Back to Local

KNHK, Nas Patuxent River Md

Location: Patuxent River, MD, United States Lat: 38.3
Local Time: 8:22 AM EST (13:22 GMT) Lon: -76.4
Time Zone: US/Eastern Elev: 39 ft

Show me the last for .
Show Decoded

2018-01-17 07:52 METAR KNHK 171252Z 32018KT 2SM -SN BR FEW009 OVC043 M01/M02 A3034 RMK SNE00B30
                 CIG 036 RY24 SLP273 P0000 T10111022 =
2018-01-17 06:52 METAR KNHK 171152Z 33012KT 2SM -SN BR BKN010 OVC031 00/M01 A3033 RMK SLP271
                 P0000 60000 T00001006 20000 53010 =
2018-01-17 05:52 METAR KNHK 171052Z 32011KT 3SM -SN BR BKN008 OVC037 00/00 A3033 RMK SNB52 SLP269
                 P0000 T00000000 =
2018-01-16 22:52 METAR KNHK 170352Z 00000KT 6SM BR BKN140 BKN220 M01/M01 A3033 RMK SLP270
                 T10111011 =
2018-01-16 21:52 METAR KNHK 170252Z 00000KT 6SM BR FEW150 BKN220 M01/M01 A3034 RMK SLP272
                 T10061006 58008 =
2018-01-16 20:52 METAR KNHK 170152Z 00000KT 6SM BR BKN220 M01/M01 A3035 RMK SLP277 T10061011 =
2018-01-16 18:52 METAR KNHK 162352Z 00000KT 9SM OVC230 00/M01 A3036 RMK SLP281 T00001006 10022
                 21011 53001 =
2018-01-16 17:52 METAR KNHK 162252Z 00000KT 7SM OVC230 M01/M01 A3036 RMK SLP279 T10061006 =
2018-01-16 15:52 METAR KNHK 162052Z 10003KT 10SM OVC250 02/00 A3036 RMK SLP280 T00220000 56020 =
2018-01-16 14:52 METAR KNHK 161952Z 08004KT 10SM BKN260 02/00 A3037 RMK SLP283 T00170000 =
2018-01-16 13:52 METAR KNHK 161852Z 12003KT 4SM BR FEW005 BKN260 02/01 A3039 RMK SLP290 T00220006
                 =
2018-01-16 11:46 METAR KNHK 161646Z 00000KT 1SM BR OVC002 01/00 A3045 RMK T00000000 =
2018-01-16 11:10 METAR KNHK 161610Z 00000KT 1/2SM FG OVC002 00/00 A3048 RMK T00000000 =
2018-01-16 10:52 METAR KNHK 161552Z 33003KT 1SM BR OVC002 00/00 A3048 RMK SLP320 T00000000 =
2018-01-16 09:52 METAR KNHK 161452Z 00000KT 1/2SM FZFG VV002 M01/M01 A3049 RMK SLP324 T10061006
                 56001 =
2018-01-16 08:52 METAR KNHK 161352Z 00000KT 1/2SM FZFG OVC002 M01/M01 A3049 RMK AO2 SLP324
                 T10111011 =

Support USWX by starting your Amazon purchase here.